TimeEDT,TemperatureF,Dew PointF,Humidity,Sea Level PressureIn,VisibilityMPH,Wind Direction,Wind SpeedMPH,Gust SpeedMPH,PrecipitationIn,Events,Conditions,WindDirDegrees,DateUTC
12:15 AM,41.0,35.6,81,30.22,10.0,Calm,Calm,-,N/A,,Mostly Cloudy,0,2013-03-30 04:15:00
12:35 AM,41.0,35.6,81,30.22,10.0,South,5.8,-,N/A,,Overcast,180,2013-03-30 04:35:00
12:55 AM,42.8,37.4,81,30.22,10.0,South,4.6,-,N/A,,Overcast,170,2013-03-30 04:55:00
1:15 AM,42.8,37.4,81,30.22,10.0,South,4.6,-,N/A,,Overcast,170,2013-03-30 05:15:00
1:35 AM,44.6,37.4,76,30.22,10.0,South,5.8,-,N/A,,Overcast,170,2013-03-30 05:35:00
1:55 AM,44.6,37.4,76,30.21,10.0,South,3.5,-,N/A,,Overcast,170,2013-03-30 05:55:00
2:15 AM,42.8,37.4,81,30.21,10.0,Calm,Calm,-,N/A,,Overcast,0,2013-03-30 06:15:00
2:35 AM,42.8,37.4,81,30.21,10.0,Calm,Calm,-,N/A,,Overcast,0,2013-03-30 06:35:00
2:55 AM,41.0,35.6,81,30.21,10.0,Calm,Calm,-,N/A,,Scattered Clouds,0,2013-03-30 06:55:00
3:15 AM,39.2,35.6,87,30.21,10.0,Calm,Calm,-,N/A,,Clear,0,2013-03-30 07:15:00
3:35 AM,39.2,35.6,87,30.20,10.0,Calm,Calm,-,N/A,,Scattered Clouds,0,2013-03-30 07:35:00
3:55 AM,39.2,35.6,87,30.20,10.0,SSW,3.5,-,N/A,,Scattered Clouds,210,2013-03-30 07:55:00
4:15 AM,39.2,35.6,87,30.20,10.0,SSW,3.5,-,N/A,,Overcast,200,2013-03-30 08:15:00
4:35 AM,41.0,37.4,87,30.20,10.0,Calm,Calm,-,N/A,,Overcast,0,2013-03-30 08:35:00
4:55 AM,39.2,35.6,87,30.20,10.0,Calm,Calm,-,N/A,,Overcast,0,2013-03-30 08:55:00
5:15 AM,39.2,35.6,87,30.20,10.0,Calm,Calm,-,N/A,,Mostly Cloudy,0,2013-03-30 09:15:00
5:35 AM,37.4,35.6,93,30.20,10.0,Calm,Calm,-,N/A,,Clear,0,2013-03-30 09:35:00
5:55 AM,37.4,35.6,93,30.20,10.0,Calm,Calm,-,N/A,,Clear,0,2013-03-30 09:55:00
6:15 AM,37.4,33.8,87,30.20,10.0,Calm,Calm,-,N/A,,Clear,0,2013-03-30 10:15:00
6:35 AM,35.6,33.8,93,30.20,10.0,Calm,Calm,-,N/A,,Clear,0,2013-03-30 10:35:00
6:55 AM,35.6,33.8,93,30.21,10.0,Calm,Calm,-,N/A,,Clear,0,2013-03-30 10:55:00
7:15 AM,35.6,33.8,93,30.22,10.0,Calm,Calm,-,N/A,,Mostly Cloudy,0,2013-03-30 11:15:00
7:35 AM,35.6,33.8,93,30.23,10.0,North,5.8,-,N/A,,Mostly Cloudy,350,2013-03-30 11:35:00
7:55 AM,37.4,35.6,93,30.23,10.0,North,4.6,-,N/A,,Overcast,350,2013-03-30 11:55:00
8:15 AM,39.2,37.4,93,30.23,10.0,Calm,Calm,-,N/A,,Overcast,0,2013-03-30 12:15:00
8:35 AM,42.8,37.4,81,30.24,10.0,NNW,4.6,-,N/A,,Overcast,340,2013-03-30 12:35:00
8:55 AM,46.4,37.4,71,30.23,10.0,North,3.5,-,N/A,,Scattered Clouds,350,2013-03-30 12:55:00
9:15 AM,50.0,35.6,58,30.24,10.0,WNW,4.6,-,N/A,,Clear,300,2013-03-30 13:15:00
9:35 AM,53.6,35.6,51,30.24,10.0,Calm,Calm,-,N/A,,Clear,0,2013-03-30 13:35:00
9:55 AM,55.4,35.6,47,30.24,10.0,WNW,3.5,-,N/A,,Clear,300,2013-03-30 13:55:00
10:15 AM,57.2,33.8,41,30.23,10.0,WNW,5.8,-,N/A,,Clear,300,2013-03-30 14:15:00
10:35 AM,57.2,30.2,36,30.23,10.0,WNW,6.9,-,N/A,,Clear,290,2013-03-30 14:35:00
10:55 AM,60.8,30.2,31,30.23,10.0,NW,8.1,-,N/A,,Clear,310,2013-03-30 14:55:00
11:15 AM,60.8,30.2,31,30.23,10.0,Calm,Calm,-,N/A,,Clear,0,2013-03-30 15:15:00
11:35 AM,60.8,30.2,31,30.22,10.0,WSW,6.9,-,N/A,,Clear,250,2013-03-30 15:35:00
11:55 AM,62.6,28.4,27,30.21,10.0,North,9.2,-,N/A,,Scattered Clouds,10,2013-03-30 15:55:00
12:15 PM,62.6,28.4,27,30.21,10.0,WNW,12.7,16.1,N/A,,Scattered Clouds,300,2013-03-30 16:15:00
12:35 PM,62.6,30.2,30,30.21,10.0,West,8.1,-,N/A,,Scattered Clouds,270,2013-03-30 16:35:00
12:55 PM,62.6,30.2,30,30.20,10.0,WNW,4.6,16.1,N/A,,Scattered Clouds,290,2013-03-30 16:55:00
1:15 PM,62.6,30.2,30,30.19,10.0,West,10.4,16.1,N/A,,Scattered Clouds,260,2013-03-30 17:15:00
1:35 PM,62.6,30.2,30,30.18,10.0,SW,4.6,-,N/A,,Scattered Clouds,220,2013-03-30 17:35:00
1:55 PM,62.6,30.2,30,30.17,10.0,WSW,4.6,16.1,N/A,,Scattered Clouds,240,2013-03-30 17:55:00
2:15 PM,64.4,30.2,28,30.16,10.0,West,10.4,-,N/A,,Scattered Clouds,260,2013-03-30 18:15:00
2:35 PM,66.2,30.2,26,30.15,10.0,Calm,Calm,-,N/A,,Mostly Cloudy,0,2013-03-30 18:35:00
2:55 PM,64.4,28.4,26,30.15,10.0,West,5.8,-,N/A,,Scattered Clouds,260,2013-03-30 18:55:00
3:15 PM,64.4,28.4,26,30.14,10.0,WNW,5.8,-,N/A,,Scattered Clouds,300,2013-03-30 19:15:00
3:35 PM,66.2,30.2,26,30.15,10.0,NW,5.8,-,N/A,,Scattered Clouds,320,2013-03-30 19:35:00
3:55 PM,66.2,30.2,26,30.14,10.0,North,9.2,-,N/A,,Mostly Cloudy,350,2013-03-30 19:55:00
4:15 PM,66.2,30.2,26,30.14,10.0,West,11.5,16.1,N/A,,Scattered Clouds,280,2013-03-30 20:15:00
4:35 PM,66.2,30.2,26,30.13,10.0,WSW,3.5,-,N/A,,Scattered Clouds,240,2013-03-30 20:35:00
4:55 PM,66.2,30.2,26,30.13,10.0,West,6.9,-,N/A,,Scattered Clouds,260,2013-03-30 20:55:00
5:15 PM,66.2,30.2,26,30.12,10.0,WNW,8.1,-,N/A,,Clear,300,2013-03-30 21:15:00
5:35 PM,64.4,30.2,28,30.13,10.0,West,10.4,-,N/A,,Scattered Clouds,280,2013-03-30 21:35:00
5:55 PM,64.4,28.4,26,30.13,10.0,WNW,5.8,9.2,N/A,,Clear,300,2013-03-30 21:55:00
6:15 PM,64.4,30.2,28,30.12,10.0,Calm,Calm,-,N/A,,Clear,0,2013-03-30 22:15:00
6:35 PM,60.8,33.8,36,30.13,10.0,East,4.6,-,N/A,,Clear,80,2013-03-30 22:35:00
6:55 PM,57.2,33.8,41,30.13,10.0,ENE,3.5,-,N/A,,Clear,70,2013-03-30 22:55:00
7:15 PM,55.4,35.6,47,30.13,10.0,East,4.6,-,N/A,,Clear,80,2013-03-30 23:15:00
7:35 PM,51.8,35.6,54,30.14,10.0,East,5.8,-,N/A,,Clear,90,2013-03-30 23:35:00
7:55 PM,50.0,37.4,62,30.15,10.0,East,4.6,-,N/A,,Clear,100,2013-03-30 23:55:00
8:15 PM,51.8,35.6,54,30.15,10.0,ESE,6.9,-,N/A,,Clear,110,2013-03-31 00:15:00
8:35 PM,50.0,35.6,58,30.16,10.0,ESE,5.8,-,N/A,,Clear,120,2013-03-31 00:35:00
8:55 PM,50.0,35.6,58,30.17,10.0,ESE,3.5,-,N/A,,Clear,120,2013-03-31 00:55:00
9:15 PM,48.2,35.6,62,30.17,10.0,SE,4.6,-,N/A,,Clear,130,2013-03-31 01:15:00
9:35 PM,48.2,33.8,58,30.17,10.0,SE,5.8,-,N/A,,Clear,140,2013-03-31 01:35:00
9:55 PM,48.2,33.8,58,30.18,10.0,SSE,6.9,-,N/A,,Clear,150,2013-03-31 01:55:00
10:15 PM,51.8,35.6,54,30.17,10.0,SSE,10.4,-,N/A,,Clear,150,2013-03-31 02:15:00
10:35 PM,50.0,35.6,58,30.17,10.0,SSE,11.5,-,N/A,,Clear,150,2013-03-31 02:35:00
10:55 PM,51.8,35.6,54,30.17,10.0,SSE,10.4,-,N/A,,Clear,150,2013-03-31 02:55:00
11:15 PM,50.0,35.6,58,30.17,10.0,SSE,12.7,-,N/A,,Clear,150,2013-03-31 03:15:00
11:35 PM,50.0,37.4,62,30.16,10.0,SSE,13.8,-,N/A,,Clear,150,2013-03-31 03:35:00
11:55 PM,48.2,37.4,66,30.16,10.0,SSE,11.5,-,N/A,,Clear,150,2013-03-31 03:55:00